sensor_id;sensor_type;location;lat;lon;timestamp;P1;durP1;ratioP1;P2;durP2;ratioP2
13463;SDS011;6804;48.774;9.174;2023-05-10T00:01:03;1.30;;;0.83;;
13463;SDS011;6804;48.774;9.174;2023-05-10T00:03:30;1.60;;;0.90;;
13463;SDS011;6804;48.774;9.174;2023-05-10T00:05:57;0.80;;;0.80;;
13463;SDS011;6804;48.774;9.174;2023-05-10T00:08:24;0.60;;;0.60;;
13463;SDS011;6804;48.774;9.174;2023-05-10T00:10:53;0.70;;;0.43;;
13463;SDS011;6804;48.774;9.174;2023-05-10T00:13:20;0.70;;;0.60;;
13463;SDS011;6804;48.774;9.174;2023-05-10T00:15:50;0.70;;;0.53;;
13463;SDS011;6804;48.774;9.174;2023-05-10T00:18:21;0.43;;;0.43;;
13463;SDS011;6804;48.774;9.174;2023-05-10T00:20:48;0.97;;;0.60;;
13463;SDS011;6804;48.774;9.174;2023-05-10T00:23:18;0.90;;;0.50;;
13463;SDS011;6804;48.774;9.174;2023-05-10T00:25:51;0.60;;;0.60;;
13463;SDS011;6804;48.774;9.174;2023-05-10T00:28:20;1.00;;;0.67;;
13463;SDS011;6804;48.774;9.174;2023-05-10T00:30:47;0.70;;;0.60;;
13463;SDS011;6804;48.774;9.174;2023-05-10T00:33:14;1.33;;;0.40;;
13463;SDS011;6804;48.774;9.174;2023-05-10T00:35:41;2.67;;;1.10;;
13463;SDS011;6804;48.774;9.174;2023-05-10T00:38:08;0.67;;;0.40;;
13463;SDS011;6804;48.774;9.174;2023-05-10T00:40:41;1.13;;;0.40;;
13463;SDS011;6804;48.774;9.174;2023-05-10T00:43:09;0.40;;;0.30;;
13463;SDS011;6804;48.774;9.174;2023-05-10T00:45:40;1.93;;;0.40;;
13463;SDS011;6804;48.774;9.174;2023-05-10T00:48:08;2.17;;;0.40;;
13463;SDS011;6804;48.774;9.174;2023-05-10T00:50:37;0.67;;;0.40;;
13463;SDS011;6804;48.774;9.174;2023-05-10T00:53:05;0.83;;;0.30;;
13463;SDS011;6804;48.774;9.174;2023-05-10T00:55:33;0.80;;;0.50;;
13463;SDS011;6804;48.774;9.174;2023-05-10T00:58:03;0.30;;;0.30;;
13463;SDS011;6804;48.774;9.174;2023-05-10T01:00:32;1.37;;;0.50;;
13463;SDS011;6804;48.774;9.174;2023-05-10T01:03:01;1.07;;;0.30;;
13463;SDS011;6804;48.774;9.174;2023-05-10T01:05:29;1.40;;;0.30;;
13463;SDS011;6804;48.774;9.174;2023-05-10T01:08:02;1.07;;;0.40;;
13463;SDS011;6804;48.774;9.174;2023-05-10T01:10:30;0.30;;;0.30;;
13463;SDS011;6804;48.774;9.174;2023-05-10T01:12:57;0.90;;;0.20;;
13463;SDS011;6804;48.774;9.174;2023-05-10T01:15:29;0.40;;;0.30;;
13463;SDS011;6804;48.774;9.174;2023-05-10T01:17:57;1.30;;;0.37;;
13463;SDS011;6804;48.774;9.174;2023-05-10T01:20:30;0.30;;;0.30;;
13463;SDS011;6804;48.774;9.174;2023-05-10T01:23:17;0.33;;;0.30;;
13463;SDS011;6804;48.774;9.174;2023-05-10T01:26:10;0.50;;;0.37;;
13463;SDS011;6804;48.774;9.174;2023-05-10T01:29:02;0.27;;;0.27;;
13463;SDS011;6804;48.774;9.174;2023-05-10T01:34:56;1.20;;;0.40;;
13463;SDS011;6804;48.774;9.174;2023-05-10T01:37:34;1.00;;;0.40;;
13463;SDS011;6804;48.774;9.174;2023-05-10T01:40:13;0.60;;;0.30;;
13463;SDS011;6804;48.774;9.174;2023-05-10T01:42:47;0.40;;;0.30;;
13463;SDS011;6804;48.774;9.174;2023-05-10T01:45:23;0.30;;;0.30;;
13463;SDS011;6804;48.774;9.174;2023-05-10T01:47:58;0.20;;;0.20;;
13463;SDS011;6804;48.774;9.174;2023-05-10T01:50:33;0.67;;;0.30;;
13463;SDS011;6804;48.774;9.174;2023-05-10T01:53:02;1.30;;;0.40;;
13463;SDS011;6804;48.774;9.174;2023-05-10T01:55:35;0.20;;;0.20;;
13463;SDS011;6804;48.774;9.174;2023-05-10T01:58:08;0.30;;;0.30;;
13463;SDS011;6804;48.774;9.174;2023-05-10T02:00:41;0.80;;;0.60;;
13463;SDS011;6804;48.774;9.174;2023-05-10T02:03:13;1.03;;;0.37;;
13463;SDS011;6804;48.774;9.174;2023-05-10T02:05:44;1.30;;;0.50;;
13463;SDS011;6804;48.774;9.174;2023-05-10T02:08:14;1.03;;;0.30;;
13463;SDS011;6804;48.774;9.174;2023-05-10T02:10:45;0.30;;;0.30;;
13463;SDS011;6804;48.774;9.174;2023-05-10T02:13:12;0.47;;;0.33;;
13463;SDS011;6804;48.774;9.174;2023-05-10T02:15:42;0.83;;;0.37;;
13463;SDS011;6804;48.774;9.174;2023-05-10T02:18:13;1.40;;;0.50;;
13463;SDS011;6804;48.774;9.174;2023-05-10T02:20:45;0.77;;;0.30;;
13463;SDS011;6804;48.774;9.174;2023-05-10T02:23:13;0.57;;;0.40;;
13463;SDS011;6804;48.774;9.174;2023-05-10T02:25:42;0.50;;;0.30;;
13463;SDS011;6804;48.774;9.174;2023-05-10T02:28:10;0.40;;;0.37;;
13463;SDS011;6804;48.774;9.174;2023-05-10T02:30:39;0.57;;;0.50;;
13463;SDS011;6804;48.774;9.174;2023-05-10T02:33:08;0.20;;;0.20;;
13463;SDS011;6804;48.774;9.174;2023-05-10T02:35:37;2.10;;;0.40;;
13463;SDS011;6804;48.774;9.174;2023-05-10T02:38:06;0.40;;;0.30;;
13463;SDS011;6804;48.774;9.174;2023-05-10T02:40:35;1.07;;;0.43;;
13463;SDS011;6804;48.774;9.174;2023-05-10T02:43:05;1.87;;;0.40;;
13463;SDS011;6804;48.774;9.174;2023-05-10T02:45:35;1.03;;;0.50;;
13463;SDS011;6804;48.774;9.174;2023-05-10T02:48:04;0.50;;;0.30;;
13463;SDS011;6804;48.774;9.174;2023-05-10T02:50:33;0.43;;;0.37;;
13463;SDS011;6804;48.774;9.174;2023-05-10T02:53:07;1.00;;;0.40;;
13463;SDS011;6804;48.774;9.174;2023-05-10T02:55:38;1.30;;;0.40;;
13463;SDS011;6804;48.774;9.174;2023-05-10T02:58:08;0.83;;;0.30;;
13463;SDS011;6804;48.774;9.174;2023-05-10T03:00:35;0.97;;;0.40;;
13463;SDS011;6804;48.774;9.174;2023-05-10T03:03:05;2.27;;;0.40;;
13463;SDS011;6804;48.774;9.174;2023-05-10T03:05:33;1.23;;;0.40;;
13463;SDS011;6804;48.774;9.174;2023-05-10T03:08:00;0.77;;;0.40;;
13463;SDS011;6804;48.774;9.174;2023-05-10T03:10:37;0.93;;;0.40;;
13463;SDS011;6804;48.774;9.174;2023-05-10T03:13:29;0.50;;;0.40;;
13463;SDS011;6804;48.774;9.174;2023-05-10T03:16:03;1.43;;;0.40;;
13463;SDS011;6804;48.774;9.174;2023-05-10T03:18:37;0.30;;;0.30;;
13463;SDS011;6804;48.774;9.174;2023-05-10T03:21:10;0.73;;;0.30;;
13463;SDS011;6804;48.774;9.174;2023-05-10T03:23:41;1.00;;;0.40;;
13463;SDS011;6804;48.774;9.174;2023-05-10T03:26:16;1.20;;;0.40;;
13463;SDS011;6804;48.774;9.174;2023-05-10T03:28:47;0.67;;;0.60;;
13463;SDS011;6804;48.774;9.174;2023-05-10T03:31:16;0.57;;;0.50;;
13463;SDS011;6804;48.774;9.174;2023-05-10T03:33:47;1.00;;;0.47;;
13463;SDS011;6804;48.774;9.174;2023-05-10T03:36:14;1.13;;;0.37;;
13463;SDS011;6804;48.774;9.174;2023-05-10T03:38:42;2.03;;;0.60;;
13463;SDS011;6804;48.774;9.174;2023-05-10T03:41:09;1.37;;;0.40;;
13463;SDS011;6804;48.774;9.174;2023-05-10T03:43:38;0.63;;;0.60;;
13463;SDS011;6804;48.774;9.174;2023-05-10T03:46:06;0.93;;;0.67;;
13463;SDS011;6804;48.774;9.174;2023-05-10T03:48:36;1.40;;;0.63;;
13463;SDS011;6804;48.774;9.174;2023-05-10T03:51:06;1.73;;;0.60;;
13463;SDS011;6804;48.774;9.174;2023-05-10T03:53:33;0.90;;;0.60;;
13463;SDS011;6804;48.774;9.174;2023-05-10T03:56:03;2.20;;;0.87;;
13463;SDS011;6804;48.774;9.174;2023-05-10T03:58:30;0.57;;;0.50;;
13463;SDS011;6804;48.774;9.174;2023-05-10T04:01:02;4.10;;;0.70;;
13463;SDS011;6804;48.774;9.174;2023-05-10T04:03:29;1.30;;;0.50;;
13463;SDS011;6804;48.774;9.174;2023-05-10T04:05:59;0.63;;;0.60;;
13463;SDS011;6804;48.774;9.174;2023-05-10T04:08:27;1.83;;;0.87;;
13463;SDS011;6804;48.774;9.174;2023-05-10T04:11:04;1.00;;;0.70;;
13463;SDS011;6804;48.774;9.174;2023-05-10T04:13:32;0.57;;;0.57;;
13463;SDS011;6804;48.774;9.174;2023-05-10T04:16:05;1.10;;;0.70;;
13463;SDS011;6804;48.774;9.174;2023-05-10T04:18:32;1.93;;;0.70;;
13463;SDS011;6804;48.774;9.174;2023-05-10T04:21:02;1.43;;;0.90;;
13463;SDS011;6804;48.774;9.174;2023-05-10T04:23:32;1.37;;;0.93;;
13463;SDS011;6804;48.774;9.174;2023-05-10T04:26:02;0.93;;;0.70;;
13463;SDS011;6804;48.774;9.174;2023-05-10T04:28:32;4.27;;;0.90;;
13463;SDS011;6804;48.774;9.174;2023-05-10T04:31:03;1.67;;;0.83;;
13463;SDS011;6804;48.774;9.174;2023-05-10T04:33:38;1.07;;;0.80;;
13463;SDS011;6804;48.774;9.174;2023-05-10T04:36:05;0.70;;;0.70;;
13463;SDS011;6804;48.774;9.174;2023-05-10T04:38:33;1.00;;;0.80;;
13463;SDS011;6804;48.774;9.174;2023-05-10T04:41:04;1.33;;;0.80;;
13463;SDS011;6804;48.774;9.174;2023-05-10T04:43:32;1.30;;;0.90;;
13463;SDS011;6804;48.774;9.174;2023-05-10T04:46:07;2.67;;;0.93;;
13463;SDS011;6804;48.774;9.174;2023-05-10T04:48:35;2.73;;;0.80;;
13463;SDS011;6804;48.774;9.174;2023-05-10T04:51:02;0.70;;;0.70;;
13463;SDS011;6804;48.774;9.174;2023-05-10T04:53:31;3.80;;;1.40;;
13463;SDS011;6804;48.774;9.174;2023-05-10T04:56:01;2.30;;;1.10;;
13463;SDS011;6804;48.774;9.174;2023-05-10T04:58:29;1.47;;;0.80;;
13463;SDS011;6804;48.774;9.174;2023-05-10T05:00:56;2.70;;;1.00;;
13463;SDS011;6804;48.774;9.174;2023-05-10T05:03:25;4.37;;;0.97;;
13463;SDS011;6804;48.774;9.174;2023-05-10T05:05:52;1.20;;;0.80;;
13463;SDS011;6804;48.774;9.174;2023-05-10T05:08:22;2.10;;;1.00;;
13463;SDS011;6804;48.774;9.174;2023-05-10T05:10:50;0.90;;;0.80;;
13463;SDS011;6804;48.774;9.174;2023-05-10T05:13:17;0.90;;;0.70;;
13463;SDS011;6804;48.774;9.174;2023-05-10T05:15:48;1.00;;;0.80;;
13463;SDS011;6804;48.774;9.174;2023-05-10T05:18:15;2.40;;;1.10;;
13463;SDS011;6804;48.774;9.174;2023-05-10T05:20:47;1.37;;;1.03;;
13463;SDS011;6804;48.774;9.174;2023-05-10T05:23:14;1.87;;;1.20;;
13463;SDS011;6804;48.774;9.174;2023-05-10T05:25:41;4.40;;;2.03;;
13463;SDS011;6804;48.774;9.174;2023-05-10T05:28:10;1.23;;;0.70;;
13463;SDS011;6804;48.774;9.174;2023-05-10T05:30:37;2.40;;;0.90;;
13463;SDS011;6804;48.774;9.174;2023-05-10T05:33:04;0.93;;;0.83;;
13463;SDS011;6804;48.774;9.174;2023-05-10T05:35:36;1.63;;;1.13;;
13463;SDS011;6804;48.774;9.174;2023-05-10T05:38:09;1.10;;;1.00;;
13463;SDS011;6804;48.774;9.174;2023-05-10T05:40:38;1.03;;;0.90;;
13463;SDS011;6804;48.774;9.174;2023-05-10T05:43:06;1.93;;;1.00;;
13463;SDS011;6804;48.774;9.174;2023-05-10T05:45:33;1.60;;;1.10;;
13463;SDS011;6804;48.774;9.174;2023-05-10T05:48:04;1.23;;;0.93;;
13463;SDS011;6804;48.774;9.174;2023-05-10T05:50:34;1.97;;;1.60;;
13463;SDS011;6804;48.774;9.174;2023-05-10T05:53:02;2.17;;;1.20;;
13463;SDS011;6804;48.774;9.174;2023-05-10T05:55:31;1.97;;;1.10;;
13463;SDS011;6804;48.774;9.174;2023-05-10T05:57:59;1.73;;;1.20;;
13463;SDS011;6804;48.774;9.174;2023-05-10T06:00:27;9.70;;;1.90;;
13463;SDS011;6804;48.774;9.174;2023-05-10T06:02:57;10.97;;;2.53;;
13463;SDS011;6804;48.774;9.174;2023-05-10T06:05:28;4.07;;;1.23;;
13463;SDS011;6804;48.774;9.174;2023-05-10T06:08:02;15.40;;;2.53;;
13463;SDS011;6804;48.774;9.174;2023-05-10T06:10:32;5.97;;;1.50;;
13463;SDS011;6804;48.774;9.174;2023-05-10T06:13:00;4.83;;;1.50;;
13463;SDS011;6804;48.774;9.174;2023-05-10T06:15:27;39.13;;;5.03;;
13463;SDS011;6804;48.774;9.174;2023-05-10T06:18:04;44.87;;;4.23;;
13463;SDS011;6804;48.774;9.174;2023-05-10T06:20:31;3.63;;;1.27;;
13463;SDS011;6804;48.774;9.174;2023-05-10T06:22:59;5.13;;;1.60;;
13463;SDS011;6804;48.774;9.174;2023-05-10T06:25:26;3.70;;;1.10;;
13463;SDS011;6804;48.774;9.174;2023-05-10T06:27:59;1.80;;;1.07;;
13463;SDS011;6804;48.774;9.174;2023-05-10T06:30:27;5.93;;;1.40;;
13463;SDS011;6804;48.774;9.174;2023-05-10T06:32:56;2.33;;;1.50;;
13463;SDS011;6804;48.774;9.174;2023-05-10T06:35:29;4.67;;;1.30;;
13463;SDS011;6804;48.774;9.174;2023-05-10T06:37:56;5.90;;;1.10;;
13463;SDS011;6804;48.774;9.174;2023-05-10T06:40:26;4.73;;;1.50;;
13463;SDS011;6804;48.774;9.174;2023-05-10T06:43:01;7.03;;;1.60;;
13463;SDS011;6804;48.774;9.174;2023-05-10T06:45:28;3.83;;;1.70;;
13463;SDS011;6804;48.774;9.174;2023-05-10T06:47:56;1.63;;;1.10;;
13463;SDS011;6804;48.774;9.174;2023-05-10T06:50:25;3.50;;;1.50;;
13463;SDS011;6804;48.774;9.174;2023-05-10T06:52:53;1.83;;;1.20;;
13463;SDS011;6804;48.774;9.174;2023-05-10T06:55:23;4.63;;;1.17;;
13463;SDS011;6804;48.774;9.174;2023-05-10T06:57:51;2.33;;;1.37;;
13463;SDS011;6804;48.774;9.174;2023-05-10T07:00:23;1.87;;;1.10;;
13463;SDS011;6804;48.774;9.174;2023-05-10T07:02:51;2.53;;;1.10;;
13463;SDS011;6804;48.774;9.174;2023-05-10T07:05:18;2.97;;;1.50;;
13463;SDS011;6804;48.774;9.174;2023-05-10T07:07:46;3.53;;;1.43;;
13463;SDS011;6804;48.774;9.174;2023-05-10T07:10:14;3.23;;;1.53;;
13463;SDS011;6804;48.774;9.174;2023-05-10T07:12:41;4.03;;;1.40;;
13463;SDS011;6804;48.774;9.174;2023-05-10T07:15:12;4.67;;;1.70;;
13463;SDS011;6804;48.774;9.174;2023-05-10T07:17:42;5.63;;;2.00;;
13463;SDS011;6804;48.774;9.174;2023-05-10T07:20:15;3.63;;;1.30;;
13463;SDS011;6804;48.774;9.174;2023-05-10T07:22:43;2.80;;;1.10;;
13463;SDS011;6804;48.774;9.174;2023-05-10T07:25:29;4.17;;;1.50;;
13463;SDS011;6804;48.774;9.174;2023-05-10T07:27:56;3.47;;;1.60;;
13463;SDS011;6804;48.774;9.174;2023-05-10T07:30:24;2.40;;;1.40;;
13463;SDS011;6804;48.774;9.174;2023-05-10T07:32:51;4.83;;;1.80;;
13463;SDS011;6804;48.774;9.174;2023-05-10T07:35:19;2.20;;;1.20;;
13463;SDS011;6804;48.774;9.174;2023-05-10T07:37:47;3.13;;;1.30;;
13463;SDS011;6804;48.774;9.174;2023-05-10T07:40:20;3.00;;;1.20;;
13463;SDS011;6804;48.774;9.174;2023-05-10T07:42:52;2.70;;;1.27;;
13463;SDS011;6804;48.774;9.174;2023-05-10T07:45:23;3.10;;;1.30;;
13463;SDS011;6804;48.774;9.174;2023-05-10T07:47:51;3.17;;;1.23;;
13463;SDS011;6804;48.774;9.174;2023-05-10T07:50:19;3.33;;;1.13;;
13463;SDS011;6804;48.774;9.174;2023-05-10T07:52:49;5.17;;;1.57;;
13463;SDS011;6804;48.774;9.174;2023-05-10T07:55:19;2.37;;;1.40;;
13463;SDS011;6804;48.774;9.174;2023-05-10T07:57:54;4.13;;;1.07;;
13463;SDS011;6804;48.774;9.174;2023-05-10T08:00:22;2.03;;;0.97;;
13463;SDS011;6804;48.774;9.174;2023-05-10T08:02:49;2.27;;;1.20;;
13463;SDS011;6804;48.774;9.174;2023-05-10T08:05:19;1.00;;;0.80;;
13463;SDS011;6804;48.774;9.174;2023-05-10T08:07:49;1.53;;;1.00;;
13463;SDS011;6804;48.774;9.174;2023-05-10T08:10:17;2.73;;;0.93;;
13463;SDS011;6804;48.774;9.174;2023-05-10T08:12:44;2.40;;;0.90;;
13463;SDS011;6804;48.774;9.174;2023-05-10T08:15:16;2.10;;;1.00;;
13463;SDS011;6804;48.774;9.174;2023-05-10T08:17:44;2.33;;;0.83;;
13463;SDS011;6804;48.774;9.174;2023-05-10T08:20:14;1.83;;;0.77;;
13463;SDS011;6804;48.774;9.174;2023-05-10T08:22:44;3.10;;;0.93;;
13463;SDS011;6804;48.774;9.174;2023-05-10T08:25:12;2.77;;;1.10;;
13463;SDS011;6804;48.774;9.174;2023-05-10T08:27:40;4.60;;;1.00;;
13463;SDS011;6804;48.774;9.174;2023-05-10T08:30:13;1.43;;;0.90;;
13463;SDS011;6804;48.774;9.174;2023-05-10T08:32:44;2.03;;;1.00;;
13463;SDS011;6804;48.774;9.174;2023-05-10T08:35:12;0.97;;;0.80;;
13463;SDS011;6804;48.774;9.174;2023-05-10T08:37:40;2.33;;;0.60;;
13463;SDS011;6804;48.774;9.174;2023-05-10T08:40:11;2.03;;;0.70;;
13463;SDS011;6804;48.774;9.174;2023-05-10T08:42:39;1.70;;;0.80;;
13463;SDS011;6804;48.774;9.174;2023-05-10T08:45:09;4.30;;;1.00;;
13463;SDS011;6804;48.774;9.174;2023-05-10T08:47:44;1.50;;;0.97;;
13463;SDS011;6804;48.774;9.174;2023-05-10T08:50:13;1.93;;;1.07;;
13463;SDS011;6804;48.774;9.174;2023-05-10T08:52:43;1.10;;;0.60;;
13463;SDS011;6804;48.774;9.174;2023-05-10T08:55:14;2.53;;;0.80;;
13463;SDS011;6804;48.774;9.174;2023-05-10T08:57:43;3.17;;;1.10;;
13463;SDS011;6804;48.774;9.174;2023-05-10T09:00:13;1.27;;;1.00;;
13463;SDS011;6804;48.774;9.174;2023-05-10T09:02:44;3.13;;;1.00;;
13463;SDS011;6804;48.774;9.174;2023-05-10T09:05:15;1.40;;;1.00;;
13463;SDS011;6804;48.774;9.174;2023-05-10T09:07:43;2.07;;;0.90;;
13463;SDS011;6804;48.774;9.174;2023-05-10T09:10:11;2.50;;;1.20;;
13463;SDS011;6804;48.774;9.174;2023-05-10T09:12:42;3.63;;;1.43;;
13463;SDS011;6804;48.774;9.174;2023-05-10T09:15:13;3.27;;;1.00;;
13463;SDS011;6804;48.774;9.174;2023-05-10T09:17:46;1.60;;;1.00;;
13463;SDS011;6804;48.774;9.174;2023-05-10T09:20:17;2.33;;;1.10;;
13463;SDS011;6804;48.774;9.174;2023-05-10T09:22:44;2.17;;;1.00;;
13463;SDS011;6804;48.774;9.174;2023-05-10T09:25:13;1.93;;;0.67;;
13463;SDS011;6804;48.774;9.174;2023-05-10T09:27:46;2.63;;;1.50;;
13463;SDS011;6804;48.774;9.174;2023-05-10T09:30:17;1.07;;;0.80;;
13463;SDS011;6804;48.774;9.174;2023-05-10T09:32:52;1.73;;;1.00;;
13463;SDS011;6804;48.774;9.174;2023-05-10T09:35:24;1.60;;;1.10;;
13463;SDS011;6804;48.774;9.174;2023-05-10T09:37:57;4.30;;;1.17;;
13463;SDS011;6804;48.774;9.174;2023-05-10T09:40:31;2.60;;;1.20;;
13463;SDS011;6804;48.774;9.174;2023-05-10T09:43:00;2.33;;;0.87;;
13463;SDS011;6804;48.774;9.174;2023-05-10T09:45:33;4.37;;;1.50;;
13463;SDS011;6804;48.774;9.174;2023-05-10T09:48:04;2.53;;;0.93;;
13463;SDS011;6804;48.774;9.174;2023-05-10T09:50:32;3.83;;;1.27;;
13463;SDS011;6804;48.774;9.174;2023-05-10T09:53:04;1.63;;;0.77;;
13463;SDS011;6804;48.774;9.174;2023-05-10T09:55:41;2.17;;;1.20;;
13463;SDS011;6804;48.774;9.174;2023-05-10T09:58:11;2.60;;;1.00;;
13463;SDS011;6804;48.774;9.174;2023-05-10T10:00:43;1.97;;;0.70;;
13463;SDS011;6804;48.774;9.174;2023-05-10T10:03:22;2.90;;;0.70;;
13463;SDS011;6804;48.774;9.174;2023-05-10T10:05:50;1.83;;;0.80;;
13463;SDS011;6804;48.774;9.174;2023-05-10T10:08:23;3.03;;;0.83;;
13463;SDS011;6804;48.774;9.174;2023-05-10T10:10:52;2.37;;;0.80;;
13463;SDS011;6804;48.774;9.174;2023-05-10T10:13:25;0.90;;;0.80;;
13463;SDS011;6804;48.774;9.174;2023-05-10T10:15:54;0.77;;;0.70;;
13463;SDS011;6804;48.774;9.174;2023-05-10T10:18:26;0.90;;;0.70;;
13463;SDS011;6804;48.774;9.174;2023-05-10T10:20:55;1.23;;;0.90;;
13463;SDS011;6804;48.774;9.174;2023-05-10T10:23:24;1.80;;;0.90;;
13463;SDS011;6804;48.774;9.174;2023-05-10T10:25:52;1.43;;;1.10;;
13463;SDS011;6804;48.774;9.174;2023-05-10T10:28:24;5.40;;;1.17;;
13463;SDS011;6804;48.774;9.174;2023-05-10T10:31:01;1.70;;;1.00;;
13463;SDS011;6804;48.774;9.174;2023-05-10T10:33:48;1.03;;;0.80;;
13463;SDS011;6804;48.774;9.174;2023-05-10T10:36:24;1.90;;;0.80;;
13463;SDS011;6804;48.774;9.174;2023-05-10T10:38:59;3.13;;;0.90;;
13463;SDS011;6804;48.774;9.174;2023-05-10T10:41:30;1.20;;;0.80;;
13463;SDS011;6804;48.774;9.174;2023-05-10T10:47:21;2.73;;;0.80;;
13463;SDS011;6804;48.774;9.174;2023-05-10T10:50:06;1.00;;;0.70;;
13463;SDS011;6804;48.774;9.174;2023-05-10T10:52:35;0.90;;;0.60;;
13463;SDS011;6804;48.774;9.174;2023-05-10T10:55:09;1.17;;;0.90;;
13463;SDS011;6804;48.774;9.174;2023-05-10T10:57:46;1.00;;;0.70;;
13463;SDS011;6804;48.774;9.174;2023-05-10T11:00:21;3.90;;;1.80;;
13463;SDS011;6804;48.774;9.174;2023-05-10T11:02:54;1.63;;;0.90;;
13463;SDS011;6804;48.774;9.174;2023-05-10T11:05:36;1.27;;;1.10;;
13463;SDS011;6804;48.774;9.174;2023-05-10T11:11:06;1.33;;;0.90;;
13463;SDS011;6804;48.774;9.174;2023-05-10T11:13:40;0.97;;;0.70;;
13463;SDS011;6804;48.774;9.174;2023-05-10T11:16:17;1.87;;;0.70;;
13463;SDS011;6804;48.774;9.174;2023-05-10T11:18:59;3.77;;;1.10;;
13463;SDS011;6804;48.774;9.174;2023-05-10T11:21:30;3.30;;;0.90;;
13463;SDS011;6804;48.774;9.174;2023-05-10T11:24:00;6.47;;;1.00;;
13463;SDS011;6804;48.774;9.174;2023-05-10T11:26:31;1.77;;;0.90;;
13463;SDS011;6804;48.774;9.174;2023-05-10T11:29:01;2.93;;;1.10;;
13463;SDS011;6804;48.774;9.174;2023-05-10T11:31:30;2.07;;;0.77;;
13463;SDS011;6804;48.774;9.174;2023-05-10T11:33:58;2.63;;;0.83;;
13463;SDS011;6804;48.774;9.174;2023-05-10T11:36:36;1.87;;;1.03;;
13463;SDS011;6804;48.774;9.174;2023-05-10T11:39:09;2.37;;;1.10;;
13463;SDS011;6804;48.774;9.174;2023-05-10T11:41:42;1.90;;;1.00;;
13463;SDS011;6804;48.774;9.174;2023-05-10T11:44:09;6.20;;;1.20;;
13463;SDS011;6804;48.774;9.174;2023-05-10T11:46:40;2.80;;;1.23;;
13463;SDS011;6804;48.774;9.174;2023-05-10T11:49:20;1.60;;;1.10;;
13463;SDS011;6804;48.774;9.174;2023-05-10T11:51:51;3.50;;;1.53;;
13463;SDS011;6804;48.774;9.174;2023-05-10T11:54:19;3.73;;;2.10;;
13463;SDS011;6804;48.774;9.174;2023-05-10T11:56:48;2.63;;;1.50;;
13463;SDS011;6804;48.774;9.174;2023-05-10T11:59:19;3.10;;;1.10;;
13463;SDS011;6804;48.774;9.174;2023-05-10T12:01:47;5.27;;;1.10;;
13463;SDS011;6804;48.774;9.174;2023-05-10T12:04:20;6.23;;;1.20;;
13463;SDS011;6804;48.774;9.174;2023-05-10T12:06:50;3.80;;;2.00;;
13463;SDS011;6804;48.774;9.174;2023-05-10T12:09:22;1.20;;;1.00;;
13463;SDS011;6804;48.774;9.174;2023-05-10T12:11:49;7.83;;;1.70;;
13463;SDS011;6804;48.774;9.174;2023-05-10T12:14:23;10.17;;;1.60;;
13463;SDS011;6804;48.774;9.174;2023-05-10T12:16:58;2.57;;;1.30;;
13463;SDS011;6804;48.774;9.174;2023-05-10T12:19:36;7.47;;;1.53;;
13463;SDS011;6804;48.774;9.174;2023-05-10T12:22:06;4.30;;;1.00;;
13463;SDS011;6804;48.774;9.174;2023-05-10T12:24:42;1.10;;;0.80;;
13463;SDS011;6804;48.774;9.174;2023-05-10T12:27:17;6.33;;;1.20;;
13463;SDS011;6804;48.774;9.174;2023-05-10T12:29:48;2.50;;;1.40;;
13463;SDS011;6804;48.774;9.174;2023-05-10T12:32:20;4.07;;;1.20;;
13463;SDS011;6804;48.774;9.174;2023-05-10T12:34:51;1.97;;;1.20;;
13463;SDS011;6804;48.774;9.174;2023-05-10T12:37:25;2.77;;;1.23;;
13463;SDS011;6804;48.774;9.174;2023-05-10T12:40:01;1.87;;;1.03;;
13463;SDS011;6804;48.774;9.174;2023-05-10T12:42:30;1.33;;;0.97;;
13463;SDS011;6804;48.774;9.174;2023-05-10T12:45:00;2.63;;;1.03;;
13463;SDS011;6804;48.774;9.174;2023-05-10T12:47:31;1.73;;;0.90;;
13463;SDS011;6804;48.774;9.174;2023-05-10T12:49:59;1.43;;;0.90;;
13463;SDS011;6804;48.774;9.174;2023-05-10T12:52:32;1.50;;;1.00;;
13463;SDS011;6804;48.774;9.174;2023-05-10T12:55:03;1.30;;;1.10;;
13463;SDS011;6804;48.774;9.174;2023-05-10T12:57:32;3.00;;;0.90;;
13463;SDS011;6804;48.774;9.174;2023-05-10T12:59:59;4.80;;;1.53;;
13463;SDS011;6804;48.774;9.174;2023-05-10T13:02:29;2.70;;;1.40;;
13463;SDS011;6804;48.774;9.174;2023-05-10T13:05:03;2.80;;;1.53;;
13463;SDS011;6804;48.774;9.174;2023-05-10T13:07:36;2.03;;;1.30;;
13463;SDS011;6804;48.774;9.174;2023-05-10T13:10:04;2.30;;;1.60;;
13463;SDS011;6804;48.774;9.174;2023-05-10T13:12:40;2.57;;;1.30;;
13463;SDS011;6804;48.774;9.174;2023-05-10T13:15:12;1.70;;;1.10;;
13463;SDS011;6804;48.774;9.174;2023-05-10T13:17:42;3.90;;;1.60;;
13463;SDS011;6804;48.774;9.174;2023-05-10T13:20:14;2.23;;;1.30;;
13463;SDS011;6804;48.774;9.174;2023-05-10T13:22:55;3.20;;;1.80;;
13463;SDS011;6804;48.774;9.174;2023-05-10T13:25:23;4.77;;;1.10;;
13463;SDS011;6804;48.774;9.174;2023-05-10T13:27:54;1.73;;;1.13;;
13463;SDS011;6804;48.774;9.174;2023-05-10T13:30:22;2.27;;;1.00;;
13463;SDS011;6804;48.774;9.174;2023-05-10T13:32:50;2.30;;;1.10;;
13463;SDS011;6804;48.774;9.174;2023-05-10T13:35:24;3.00;;;1.40;;
13463;SDS011;6804;48.774;9.174;2023-05-10T13:37:57;2.50;;;1.43;;
13463;SDS011;6804;48.774;9.174;2023-05-10T13:40:25;1.47;;;1.03;;
13463;SDS011;6804;48.774;9.174;2023-05-10T13:42:53;3.00;;;1.20;;
13463;SDS011;6804;48.774;9.174;2023-05-10T13:45:29;1.90;;;1.13;;
13463;SDS011;6804;48.774;9.174;2023-05-10T13:47:59;2.97;;;1.30;;
13463;SDS011;6804;48.774;9.174;2023-05-10T13:50:30;5.30;;;1.50;;
13463;SDS011;6804;48.774;9.174;2023-05-10T13:53:02;2.23;;;1.10;;
13463;SDS011;6804;48.774;9.174;2023-05-10T13:55:35;4.40;;;1.37;;
13463;SDS011;6804;48.774;9.174;2023-05-10T13:58:03;3.00;;;1.00;;
13463;SDS011;6804;48.774;9.174;2023-05-10T14:00:30;2.63;;;1.53;;
13463;SDS011;6804;48.774;9.174;2023-05-10T14:03:03;2.23;;;1.40;;
13463;SDS011;6804;48.774;9.174;2023-05-10T14:05:32;2.53;;;1.33;;
13463;SDS011;6804;48.774;9.174;2023-05-10T14:08:04;3.40;;;1.90;;
13463;SDS011;6804;48.774;9.174;2023-05-10T14:10:34;2.17;;;1.03;;
13463;SDS011;6804;48.774;9.174;2023-05-10T14:13:03;1.87;;;0.90;;
13463;SDS011;6804;48.774;9.174;2023-05-10T14:15:31;1.03;;;0.80;;
13463;SDS011;6804;48.774;9.174;2023-05-10T14:18:01;2.40;;;1.00;;
13463;SDS011;6804;48.774;9.174;2023-05-10T14:20:32;1.47;;;0.93;;
13463;SDS011;6804;48.774;9.174;2023-05-10T14:23:02;4.20;;;1.03;;
13463;SDS011;6804;48.774;9.174;2023-05-10T14:25:32;4.73;;;1.27;;
13463;SDS011;6804;48.774;9.174;2023-05-10T14:28:00;5.00;;;1.20;;
13463;SDS011;6804;48.774;9.174;2023-05-10T14:30:30;2.07;;;0.90;;
13463;SDS011;6804;48.774;9.174;2023-05-10T14:33:04;2.50;;;1.10;;
13463;SDS011;6804;48.774;9.174;2023-05-10T14:35:33;1.60;;;0.70;;
13463;SDS011;6804;48.774;9.174;2023-05-10T14:38:01;2.43;;;1.50;;
13463;SDS011;6804;48.774;9.174;2023-05-10T14:40:32;1.67;;;1.13;;
13463;SDS011;6804;48.774;9.174;2023-05-10T14:43:00;1.17;;;0.80;;
13463;SDS011;6804;48.774;9.174;2023-05-10T14:45:28;1.77;;;1.20;;
13463;SDS011;6804;48.774;9.174;2023-05-10T14:47:56;1.67;;;0.90;;
13463;SDS011;6804;48.774;9.174;2023-05-10T14:50:24;1.83;;;1.10;;
13463;SDS011;6804;48.774;9.174;2023-05-10T14:52:52;4.03;;;1.27;;
13463;SDS011;6804;48.774;9.174;2023-05-10T14:55:24;2.10;;;1.30;;
13463;SDS011;6804;48.774;9.174;2023-05-10T14:57:52;2.13;;;1.43;;
13463;SDS011;6804;48.774;9.174;2023-05-10T15:00:24;4.53;;;1.20;;
13463;SDS011;6804;48.774;9.174;2023-05-10T15:02:52;3.00;;;0.90;;
13463;SDS011;6804;48.774;9.174;2023-05-10T15:05:23;2.10;;;1.20;;
13463;SDS011;6804;48.774;9.174;2023-05-10T15:07:51;1.80;;;0.97;;
13463;SDS011;6804;48.774;9.174;2023-05-10T15:10:21;2.60;;;1.37;;
13463;SDS011;6804;48.774;9.174;2023-05-10T15:12:54;1.77;;;1.07;;
13463;SDS011;6804;48.774;9.174;2023-05-10T15:15:22;3.80;;;1.20;;
13463;SDS011;6804;48.774;9.174;2023-05-10T15:17:52;2.30;;;1.10;;
13463;SDS011;6804;48.774;9.174;2023-05-10T15:20:27;3.03;;;1.60;;
13463;SDS011;6804;48.774;9.174;2023-05-10T15:22:56;1.30;;;1.10;;
13463;SDS011;6804;48.774;9.174;2023-05-10T15:25:29;1.50;;;1.00;;
13463;SDS011;6804;48.774;9.174;2023-05-10T15:28:00;2.73;;;0.93;;
13463;SDS011;6804;48.774;9.174;2023-05-10T15:30:40;1.47;;;1.07;;